sensor_id;sensor_type;location;lat;lon;timestamp;temperature;humidity
29241;DHT22;16268;49.880;8.648;2023-01-31T09:28:53;4.30;99.90
29241;DHT22;16268;49.880;8.648;2023-01-31T09:31:19;4.30;99.90
29241;DHT22;16268;49.880;8.648;2023-01-31T09:33:45;4.30;99.90
29241;DHT22;16268;49.880;8.648;2023-01-31T09:36:14;4.50;99.90
29241;DHT22;16268;49.880;8.648;2023-01-31T09:38:40;4.70;99.90
29241;DHT22;16268;49.880;8.648;2023-01-31T09:41:18;4.80;99.90
29241;DHT22;16268;49.880;8.648;2023-01-31T09:46:36;4.90;99.90
29241;DHT22;16268;49.880;8.648;2023-01-31T09:49:07;4.90;99.90
29241;DHT22;16268;49.880;8.648;2023-01-31T09:51:36;4.90;99.90
29241;DHT22;16268;49.880;8.648;2023-01-31T09:54:05;5.00;99.90
29241;DHT22;16268;49.880;8.648;2023-01-31T09:56:38;5.00;99.90
29241;DHT22;16268;49.880;8.648;2023-01-31T10:00:38;5.10;99.90
29241;DHT22;16268;49.880;8.648;2023-01-31T10:07:35;5.50;99.90
29241;DHT22;16268;49.880;8.648;2023-01-31T10:12:56;5.50;99.90
29241;DHT22;16268;49.880;8.648;2023-01-31T10:17:59;5.40;99.90
29241;DHT22;16268;49.880;8.648;2023-01-31T10:20:33;5.40;99.90
29241;DHT22;16268;49.880;8.648;2023-01-31T10:25:39;5.50;99.90
29241;DHT22;16268;49.880;8.648;2023-01-31T10:33:34;5.30;99.90
29241;DHT22;16268;49.880;8.648;2023-01-31T10:36:21;5.30;99.90
29241;DHT22;16268;49.880;8.648;2023-01-31T10:45:02;5.30;99.90
29241;DHT22;16268;49.880;8.648;2023-01-31T10:47:32;5.20;99.90
29241;DHT22;16268;49.880;8.648;2023-01-31T10:49:59;5.30;99.90
29241;DHT22;16268;49.880;8.648;2023-01-31T10:57:39;5.80;99.90
29241;DHT22;16268;49.880;8.648;2023-01-31T11:00:10;6.00;99.90
29241;DHT22;16268;49.880;8.648;2023-01-31T11:02:37;6.10;99.90
29241;DHT22;16268;49.880;8.648;2023-01-31T11:05:03;6.10;99.90
29241;DHT22;16268;49.880;8.648;2023-01-31T11:07:30;6.10;99.90
29241;DHT22;16268;49.880;8.648;2023-01-31T11:09:56;6.20;99.90
29241;DHT22;16268;49.880;8.648;2023-01-31T11:12:51;6.20;99.90
29241;DHT22;16268;49.880;8.648;2023-01-31T11:15:19;6.40;99.90
29241;DHT22;16268;49.880;8.648;2023-01-31T11:17:45;6.50;99.90
29241;DHT22;16268;49.880;8.648;2023-01-31T11:20:28;6.60;99.90
29241;DHT22;16268;49.880;8.648;2023-01-31T11:22:57;6.50;99.90
29241;DHT22;16268;49.880;8.648;2023-01-31T11:25:24;6.30;99.90
29241;DHT22;16268;49.880;8.648;2023-01-31T11:27:57;6.10;99.90
29241;DHT22;16268;49.880;8.648;2023-01-31T11:30:27;6.10;99.90
29241;DHT22;16268;49.880;8.648;2023-01-31T11:32:53;6.00;99.90
29241;DHT22;16268;49.880;8.648;2023-01-31T11:37:54;6.10;99.90
29241;DHT22;16268;49.880;8.648;2023-01-31T11:42:57;6.00;99.90
29241;DHT22;16268;49.880;8.648;2023-01-31T11:45:35;6.00;99.90
29241;DHT22;16268;49.880;8.648;2023-01-31T11:48:23;6.00;99.90
29241;DHT22;16268;49.880;8.648;2023-01-31T11:50:57;6.00;99.90
29241;DHT22;16268;49.880;8.648;2023-01-31T11:53:46;6.00;99.90
29241;DHT22;16268;49.880;8.648;2023-01-31T11:56:16;6.10;99.90
29241;DHT22;16268;49.880;8.648;2023-01-31T11:58:43;6.00;99.90
29241;DHT22;16268;49.880;8.648;2023-01-31T12:01:19;5.90;99.90
29241;DHT22;16268;49.880;8.648;2023-01-31T12:03:54;5.90;99.90
29241;DHT22;16268;49.880;8.648;2023-01-31T12:06:36;6.00;99.90
29241;DHT22;16268;49.880;8.648;2023-01-31T12:09:05;6.00;99.90
29241;DHT22;16268;49.880;8.648;2023-01-31T12:11:53;6.00;99.90
29241;DHT22;16268;49.880;8.648;2023-01-31T12:14:18;6.20;99.90
29241;DHT22;16268;49.880;8.648;2023-01-31T12:16:46;6.30;99.90
29241;DHT22;16268;49.880;8.648;2023-01-31T12:22:01;6.40;99.90
29241;DHT22;16268;49.880;8.648;2023-01-31T12:27:45;6.30;99.90
29241;DHT22;16268;49.880;8.648;2023-01-31T12:30:33;6.40;99.90
29241;DHT22;16268;49.880;8.648;2023-01-31T12:38:55;6.30;99.90
29241;DHT22;16268;49.880;8.648;2023-01-31T12:41:36;6.20;99.90
29241;DHT22;16268;49.880;8.648;2023-01-31T12:44:21;6.20;99.90
29241;DHT22;16268;49.880;8.648;2023-01-31T12:47:17;6.10;99.90
29241;DHT22;16268;49.880;8.648;2023-01-31T12:49:52;6.10;99.90
29241;DHT22;16268;49.880;8.648;2023-01-31T12:58:10;6.10;99.90
29241;DHT22;16268;49.880;8.648;2023-01-31T13:00:48;6.10;99.90
29241;DHT22;16268;49.880;8.648;2023-01-31T13:06:15;6.10;99.90
29241;DHT22;16268;49.880;8.648;2023-01-31T13:08:52;6.10;99.90
29241;DHT22;16268;49.880;8.648;2023-01-31T13:11:31;6.10;99.90
29241;DHT22;16268;49.880;8.648;2023-01-31T13:14:10;6.10;99.90
29241;DHT22;16268;49.880;8.648;2023-01-31T13:16:41;6.10;99.90
29241;DHT22;16268;49.880;8.648;2023-01-31T13:19:37;6.10;99.90
29241;DHT22;16268;49.880;8.648;2023-01-31T13:22:04;6.10;99.90
29241;DHT22;16268;49.880;8.648;2023-01-31T13:24:36;6.10;99.90
29241;DHT22;16268;49.880;8.648;2023-01-31T13:27:22;6.10;99.90
29241;DHT22;16268;49.880;8.648;2023-01-31T13:30:04;6.00;99.90
29241;DHT22;16268;49.880;8.648;2023-01-31T13:32:36;6.00;99.90
29241;DHT22;16268;49.880;8.648;2023-01-31T13:35:27;6.10;99.90
29241;DHT22;16268;49.880;8.648;2023-01-31T13:37:58;6.10;99.90
29241;DHT22;16268;49.880;8.648;2023-01-31T13:40:27;6.10;99.90
29241;DHT22;16268;49.880;8.648;2023-01-31T13:42:57;6.10;99.90
29241;DHT22;16268;49.880;8.648;2023-01-31T13:45:29;6.00;99.90
29241;DHT22;16268;49.880;8.648;2023-01-31T13:48:24;6.10;99.90
29241;DHT22;16268;49.880;8.648;2023-01-31T13:53:42;6.20;99.90
29241;DHT22;16268;49.880;8.648;2023-01-31T13:56:15;6.20;99.90
29241;DHT22;16268;49.880;8.648;2023-01-31T13:58:42;6.20;99.90
29241;DHT22;16268;49.880;8.648;2023-01-31T14:01:16;6.20;99.90
29241;DHT22;16268;49.880;8.648;2023-01-31T14:12:35;6.20;99.90
29241;DHT22;16268;49.880;8.648;2023-01-31T14:15:44;6.20;99.90
29241;DHT22;16268;49.880;8.648;2023-01-31T14:17:57;6.20;99.90
29241;DHT22;16268;49.880;8.648;2023-01-31T14:20:25;6.20;99.90
29241;DHT22;16268;49.880;8.648;2023-01-31T14:25:49;6.30;99.90
29241;DHT22;16268;49.880;8.648;2023-01-31T14:28:14;6.20;99.90
29241;DHT22;16268;49.880;8.648;2023-01-31T14:30:41;6.20;99.90
29241;DHT22;16268;49.880;8.648;2023-01-31T14:33:20;6.10;99.90
29241;DHT22;16268;49.880;8.648;2023-01-31T14:36:12;6.20;99.90
29241;DHT22;16268;49.880;8.648;2023-01-31T14:53:29;6.10;99.90
29241;DHT22;16268;49.880;8.648;2023-01-31T14:56:18;6.00;99.90
29241;DHT22;16268;49.880;8.648;2023-01-31T14:58:48;6.00;99.90
29241;DHT22;16268;49.880;8.648;2023-01-31T15:01:17;5.90;99.90
29241;DHT22;16268;49.880;8.648;2023-01-31T15:03:55;5.80;99.90
29241;DHT22;16268;49.880;8.648;2023-01-31T15:06:24;5.70;99.90
29241;DHT22;16268;49.880;8.648;2023-01-31T15:11:46;5.50;99.90
29241;DHT22;16268;49.880;8.648;2023-01-31T15:14:23;5.40;99.90
29241;DHT22;16268;49.880;8.648;2023-01-31T15:17:12;5.40;99.90
29241;DHT22;16268;49.880;8.648;2023-01-31T15:19:47;5.30;99.90
29241;DHT22;16268;49.880;8.648;2023-01-31T15:22:16;5.30;99.90
29241;DHT22;16268;49.880;8.648;2023-01-31T15:24:49;5.20;99.90
29241;DHT22;16268;49.880;8.648;2023-01-31T15:27:19;5.20;99.90
29241;DHT22;16268;49.880;8.648;2023-01-31T15:32:28;5.20;99.90
29241;DHT22;16268;49.880;8.648;2023-01-31T15:35:26;5.20;99.90
29241;DHT22;16268;49.880;8.648;2023-01-31T15:38:21;5.20;99.90
29241;DHT22;16268;49.880;8.648;2023-01-31T15:40:44;5.10;99.90
29241;DHT22;16268;49.880;8.648;2023-01-31T15:43:21;5.10;99.90
29241;DHT22;16268;49.880;8.648;2023-01-31T15:45:46;5.00;99.90
29241;DHT22;16268;49.880;8.648;2023-01-31T15:48:19;5.00;99.90
29241;DHT22;16268;49.880;8.648;2023-01-31T15:50:52;5.00;99.90
29241;DHT22;16268;49.880;8.648;2023-01-31T15:53:19;4.90;99.90
29241;DHT22;16268;49.880;8.648;2023-01-31T15:55:47;4.90;99.90
29241;DHT22;16268;49.880;8.648;2023-01-31T15:58:19;4.90;99.90
29241;DHT22;16268;49.880;8.648;2023-01-31T16:00:57;4.90;99.90
29241;DHT22;16268;49.880;8.648;2023-01-31T16:03:25;5.00;99.90
29241;DHT22;16268;49.880;8.648;2023-01-31T16:05:54;5.00;99.90
29241;DHT22;16268;49.880;8.648;2023-01-31T16:08:27;5.00;99.90
29241;DHT22;16268;49.880;8.648;2023-01-31T16:10:57;5.00;99.90
29241;DHT22;16268;49.880;8.648;2023-01-31T16:13:24;5.10;99.90
29241;DHT22;16268;49.880;8.648;2023-01-31T16:15:50;5.10;99.90
29241;DHT22;16268;49.880;8.648;2023-01-31T16:18:16;5.20;99.90
29241;DHT22;16268;49.880;8.648;2023-01-31T16:20:48;5.20;99.90
29241;DHT22;16268;49.880;8.648;2023-01-31T16:23:28;5.20;99.90
29241;DHT22;16268;49.880;8.648;2023-01-31T16:26:27;5.20;99.90
29241;DHT22;16268;49.880;8.648;2023-01-31T16:28:59;5.20;99.90
29241;DHT22;16268;49.880;8.648;2023-01-31T16:31:30;5.10;99.90
29241;DHT22;16268;49.880;8.648;2023-01-31T16:33:59;5.20;99.90
29241;DHT22;16268;49.880;8.648;2023-01-31T16:39:42;5.20;99.90
29241;DHT22;16268;49.880;8.648;2023-01-31T16:42:20;5.20;99.90
29241;DHT22;16268;49.880;8.648;2023-01-31T16:44:48;5.30;99.90
29241;DHT22;16268;49.880;8.648;2023-01-31T16:47:45;5.30;99.90
29241;DHT22;16268;49.880;8.648;2023-01-31T16:53:05;5.40;99.90
29241;DHT22;16268;49.880;8.648;2023-01-31T16:55:31;5.40;99.90
29241;DHT22;16268;49.880;8.648;2023-01-31T16:57:56;5.50;99.90
29241;DHT22;16268;49.880;8.648;2023-01-31T17:02:54;5.50;99.90
29241;DHT22;16268;49.880;8.648;2023-01-31T17:05:27;5.50;99.90
29241;DHT22;16268;49.880;8.648;2023-01-31T17:07:55;5.50;99.90
29241;DHT22;16268;49.880;8.648;2023-01-31T17:10:26;5.60;99.90
29241;DHT22;16268;49.880;8.648;2023-01-31T17:13:00;5.60;99.90
29241;DHT22;16268;49.880;8.648;2023-01-31T17:15:26;5.50;99.90
29241;DHT22;16268;49.880;8.648;2023-01-31T17:17:52;5.60;99.90
29241;DHT22;16268;49.880;8.648;2023-01-31T17:20:19;5.60;99.90
29241;DHT22;16268;49.880;8.648;2023-01-31T17:22:45;5.70;99.90
29241;DHT22;16268;49.880;8.648;2023-01-31T17:25:17;5.60;99.90
29241;DHT22;16268;49.880;8.648;2023-01-31T17:27:44;5.70;99.90
29241;DHT22;16268;49.880;8.648;2023-01-31T17:30:10;5.70;99.90
29241;DHT22;16268;49.880;8.648;2023-01-31T17:32:36;5.70;99.90
29241;DHT22;16268;49.880;8.648;2023-01-31T17:35:14;5.70;99.90
29241;DHT22;16268;49.880;8.648;2023-01-31T17:37:42;5.70;99.90
29241;DHT22;16268;49.880;8.648;2023-01-31T17:40:08;5.70;99.90
29241;DHT22;16268;49.880;8.648;2023-01-31T17:42:34;5.70;99.90
29241;DHT22;16268;49.880;8.648;2023-01-31T17:44:59;5.80;99.90
29241;DHT22;16268;49.880;8.648;2023-01-31T17:47:25;5.70;99.90
29241;DHT22;16268;49.880;8.648;2023-01-31T17:49:51;5.70;99.90
29241;DHT22;16268;49.880;8.648;2023-01-31T17:52:16;5.80;99.90
29241;DHT22;16268;49.880;8.648;2023-01-31T17:54:42;5.80;99.90
29241;DHT22;16268;49.880;8.648;2023-01-31T17:57:08;5.80;99.90
29241;DHT22;16268;49.880;8.648;2023-01-31T17:59:33;5.80;99.90
29241;DHT22;16268;49.880;8.648;2023-01-31T18:01:59;5.80;99.90
29241;DHT22;16268;49.880;8.648;2023-01-31T18:04:25;5.80;99.90
29241;DHT22;16268;49.880;8.648;2023-01-31T18:06:50;5.80;99.90
29241;DHT22;16268;49.880;8.648;2023-01-31T18:09:16;5.70;99.90
29241;DHT22;16268;49.880;8.648;2023-01-31T18:11:43;5.70;99.90
29241;DHT22;16268;49.880;8.648;2023-01-31T18:14:10;5.70;99.90
29241;DHT22;16268;49.880;8.648;2023-01-31T18:16:36;5.70;99.90
29241;DHT22;16268;49.880;8.648;2023-01-31T18:19:02;5.70;99.90
29241;DHT22;16268;49.880;8.648;2023-01-31T18:21:27;5.70;99.90
29241;DHT22;16268;49.880;8.648;2023-01-31T18:23:55;5.70;99.90
29241;DHT22;16268;49.880;8.648;2023-01-31T18:26:22;5.70;99.90
29241;DHT22;16268;49.880;8.648;2023-01-31T18:28:48;5.70;99.90
29241;DHT22;16268;49.880;8.648;2023-01-31T18:31:15;5.70;99.90
29241;DHT22;16268;49.880;8.648;2023-01-31T18:33:43;5.70;99.90
29241;DHT22;16268;49.880;8.648;2023-01-31T18:36:11;5.70;99.90
29241;DHT22;16268;49.880;8.648;2023-01-31T18:38:44;5.70;99.90
29241;DHT22;16268;49.880;8.648;2023-01-31T18:41:12;5.70;99.90
29241;DHT22;16268;49.880;8.648;2023-01-31T18:43:41;5.60;99.90
29241;DHT22;16268;49.880;8.648;2023-01-31T18:46:08;5.70;99.90
29241;DHT22;16268;49.880;8.648;2023-01-31T18:48:35;5.70;99.90
29241;DHT22;16268;49.880;8.648;2023-01-31T18:51:03;5.70;99.90
29241;DHT22;16268;49.880;8.648;2023-01-31T18:53:32;5.70;99.90
29241;DHT22;16268;49.880;8.648;2023-01-31T18:56:03;5.70;99.90
29241;DHT22;16268;49.880;8.648;2023-01-31T18:58:33;5.70;99.90
29241;DHT22;16268;49.880;8.648;2023-01-31T19:01:17;5.80;99.90
29241;DHT22;16268;49.880;8.648;2023-01-31T19:03:44;5.80;99.90
29241;DHT22;16268;49.880;8.648;2023-01-31T19:06:13;5.80;99.90
29241;DHT22;16268;49.880;8.648;2023-01-31T19:08:39;5.90;99.90
29241;DHT22;16268;49.880;8.648;2023-01-31T19:11:11;5.90;99.90
29241;DHT22;16268;49.880;8.648;2023-01-31T19:13:38;5.90;99.90
29241;DHT22;16268;49.880;8.648;2023-01-31T19:16:14;5.90;99.90
29241;DHT22;16268;49.880;8.648;2023-01-31T19:18:40;6.00;99.90
29241;DHT22;16268;49.880;8.648;2023-01-31T19:21:18;6.00;99.90
29241;DHT22;16268;49.880;8.648;2023-01-31T19:23:45;6.00;99.90
29241;DHT22;16268;49.880;8.648;2023-01-31T19:26:12;6.00;99.90
29241;DHT22;16268;49.880;8.648;2023-01-31T19:28:38;6.10;99.90
29241;DHT22;16268;49.880;8.648;2023-01-31T19:31:05;6.10;99.90
29241;DHT22;16268;49.880;8.648;2023-01-31T19:33:31;6.10;99.90
29241;DHT22;16268;49.880;8.648;2023-01-31T19:35:56;6.10;99.90
29241;DHT22;16268;49.880;8.648;2023-01-31T19:38:22;6.20;99.90
29241;DHT22;16268;49.880;8.648;2023-01-31T19:40:48;6.20;99.90
29241;DHT22;16268;49.880;8.648;2023-01-31T19:43:16;6.20;99.90
29241;DHT22;16268;49.880;8.648;2023-01-31T19:45:42;6.20;99.90
29241;DHT22;16268;49.880;8.648;2023-01-31T19:48:07;6.20;99.90
29241;DHT22;16268;49.880;8.648;2023-01-31T19:50:33;6.20;99.90
29241;DHT22;16268;49.880;8.648;2023-01-31T19:53:01;6.20;99.90
29241;DHT22;16268;49.880;8.648;2023-01-31T19:55:26;6.20;99.90
29241;DHT22;16268;49.880;8.648;2023-01-31T19:57:52;6.20;99.90
29241;DHT22;16268;49.880;8.648;2023-01-31T20:00:18;6.20;99.90
29241;DHT22;16268;49.880;8.648;2023-01-31T20:02:43;6.20;99.90
29241;DHT22;16268;49.880;8.648;2023-01-31T20:05:10;6.20;99.90
29241;DHT22;16268;49.880;8.648;2023-01-31T20:07:39;6.30;99.90
29241;DHT22;16268;49.880;8.648;2023-01-31T20:10:09;6.30;99.90
29241;DHT22;16268;49.880;8.648;2023-01-31T20:12:34;6.30;99.90
29241;DHT22;16268;49.880;8.648;2023-01-31T20:15:00;6.20;99.90
29241;DHT22;16268;49.880;8.648;2023-01-31T20:17:26;6.30;99.90
29241;DHT22;16268;49.880;8.648;2023-01-31T20:19:51;6.30;99.90
29241;DHT22;16268;49.880;8.648;2023-01-31T20:22:17;6.30;99.90
29241;DHT22;16268;49.880;8.648;2023-01-31T20:24:46;6.40;99.90
29241;DHT22;16268;49.880;8.648;2023-01-31T20:27:12;6.30;99.90
29241;DHT22;16268;49.880;8.648;2023-01-31T20:29:37;6.40;99.90
29241;DHT22;16268;49.880;8.648;2023-01-31T20:32:03;6.40;99.90
29241;DHT22;16268;49.880;8.648;2023-01-31T20:34:32;6.30;99.90
29241;DHT22;16268;49.880;8.648;2023-01-31T20:36:59;6.40;99.90
29241;DHT22;16268;49.880;8.648;2023-01-31T20:39:24;6.30;99.90
29241;DHT22;16268;49.880;8.648;2023-01-31T20:41:50;6.30;99.90
29241;DHT22;16268;49.880;8.648;2023-01-31T20:44:15;6.30;99.90
29241;DHT22;16268;49.880;8.648;2023-01-31T20:46:41;6.30;99.90
29241;DHT22;16268;49.880;8.648;2023-01-31T20:49:06;6.30;99.90
29241;DHT22;16268;49.880;8.648;2023-01-31T20:51:32;6.30;99.90
29241;DHT22;16268;49.880;8.648;2023-01-31T20:53:58;6.30;99.90
29241;DHT22;16268;49.880;8.648;2023-01-31T20:56:23;6.20;99.90
29241;DHT22;16268;49.880;8.648;2023-01-31T20:58:49;6.30;99.90
29241;DHT22;16268;49.880;8.648;2023-01-31T21:01:15;6.30;99.90
29241;DHT22;16268;49.880;8.648;2023-01-31T21:03:40;6.30;99.90
29241;DHT22;16268;49.880;8.648;2023-01-31T21:06:06;6.30;99.90
29241;DHT22;16268;49.880;8.648;2023-01-31T21:08:32;6.30;99.90
29241;DHT22;16268;49.880;8.648;2023-01-31T21:11:03;6.20;99.90
29241;DHT22;16268;49.880;8.648;2023-01-31T21:13:30;6.20;99.90
29241;DHT22;16268;49.880;8.648;2023-01-31T21:15:59;6.20;99.90
29241;DHT22;16268;49.880;8.648;2023-01-31T21:18:33;6.20;99.90
29241;DHT22;16268;49.880;8.648;2023-01-31T21:21:06;6.20;99.90
29241;DHT22;16268;49.880;8.648;2023-01-31T21:23:34;6.20;99.90
29241;DHT22;16268;49.880;8.648;2023-01-31T21:26:07;6.20;99.90
29241;DHT22;16268;49.880;8.648;2023-01-31T21:28:34;6.30;99.90
29241;DHT22;16268;49.880;8.648;2023-01-31T21:31:06;6.20;99.90
29241;DHT22;16268;49.880;8.648;2023-01-31T21:33:32;6.30;99.90
29241;DHT22;16268;49.880;8.648;2023-01-31T21:35:58;6.30;99.90
29241;DHT22;16268;49.880;8.648;2023-01-31T21:38:25;6.30;99.90
29241;DHT22;16268;49.880;8.648;2023-01-31T21:40:51;6.40;99.90
29241;DHT22;16268;49.880;8.648;2023-01-31T21:43:37;6.40;99.90
29241;DHT22;16268;49.880;8.648;2023-01-31T21:46:10;6.40;99.90
29241;DHT22;16268;49.880;8.648;2023-01-31T21:48:37;6.30;99.90
29241;DHT22;16268;49.880;8.648;2023-01-31T21:51:05;6.40;99.90
29241;DHT22;16268;49.880;8.648;2023-01-31T21:53:31;6.40;99.90
29241;DHT22;16268;49.880;8.648;2023-01-31T21:56:24;6.30;99.90
29241;DHT22;16268;49.880;8.648;2023-01-31T21:58:52;6.30;99.90
29241;DHT22;16268;49.880;8.648;2023-01-31T22:01:20;6.40;99.90
29241;DHT22;16268;49.880;8.648;2023-01-31T22:03:49;6.30;99.90
29241;DHT22;16268;49.880;8.648;2023-01-31T22:06:17;6.40;99.90
29241;DHT22;16268;49.880;8.648;2023-01-31T22:08:44;6.30;99.90
29241;DHT22;16268;49.880;8.648;2023-01-31T22:11:13;6.40;99.90
29241;DHT22;16268;49.880;8.648;2023-01-31T22:13:43;6.40;99.90
29241;DHT22;16268;49.880;8.648;2023-01-31T22:16:10;6.40;99.90
29241;DHT22;16268;49.880;8.648;2023-01-31T22:18:37;6.40;99.90
29241;DHT22;16268;49.880;8.648;2023-01-31T22:21:08;6.40;99.90
29241;DHT22;16268;49.880;8.648;2023-01-31T22:23:36;6.40;99.90
29241;DHT22;16268;49.880;8.648;2023-01-31T22:26:07;6.50;99.90
29241;DHT22;16268;49.880;8.648;2023-01-31T22:28:34;6.50;99.90
29241;DHT22;16268;49.880;8.648;2023-01-31T22:31:00;6.50;99.90
29241;DHT22;16268;49.880;8.648;2023-01-31T22:33:27;6.50;99.90
29241;DHT22;16268;49.880;8.648;2023-01-31T22:35:52;6.50;99.90
29241;DHT22;16268;49.880;8.648;2023-01-31T22:38:18;6.40;99.90
29241;DHT22;16268;49.880;8.648;2023-01-31T22:40:44;6.30;99.90
29241;DHT22;16268;49.880;8.648;2023-01-31T22:43:11;6.30;99.90
29241;DHT22;16268;49.880;8.648;2023-01-31T22:45:42;6.30;99.90
29241;DHT22;16268;49.880;8.648;2023-01-31T22:48:07;6.40;99.90
29241;DHT22;16268;49.880;8.648;2023-01-31T22:50:33;6.50;99.90
29241;DHT22;16268;49.880;8.648;2023-01-31T22:52:59;6.50;99.90
29241;DHT22;16268;49.880;8.648;2023-01-31T22:55:25;6.50;99.90
29241;DHT22;16268;49.880;8.648;2023-01-31T22:57:50;6.50;99.90
29241;DHT22;16268;49.880;8.648;2023-01-31T23:00:17;6.50;99.90
29241;DHT22;16268;49.880;8.648;2023-01-31T23:02:42;6.40;99.90
29241;DHT22;16268;49.880;8.648;2023-01-31T23:05:08;6.50;99.90
29241;DHT22;16268;49.880;8.648;2023-01-31T23:07:33;6.50;99.90
29241;DHT22;16268;49.880;8.648;2023-01-31T23:09:59;6.50;99.90
29241;DHT22;16268;49.880;8.648;2023-01-31T23:12:24;6.50;99.90
29241;DHT22;16268;49.880;8.648;2023-01-31T23:14:50;6.50;99.90
29241;DHT22;16268;49.880;8.648;2023-01-31T23:17:15;6.40;99.90
29241;DHT22;16268;49.880;8.648;2023-01-31T23:19:59;6.40;99.90
29241;DHT22;16268;49.880;8.648;2023-01-31T23:22:25;6.40;99.90
29241;DHT22;16268;49.880;8.648;2023-01-31T23:24:50;6.30;99.90
29241;DHT22;16268;49.880;8.648;2023-01-31T23:27:16;6.40;99.90
29241;DHT22;16268;49.880;8.648;2023-01-31T23:29:41;6.30;99.90
29241;DHT22;16268;49.880;8.648;2023-01-31T23:32:07;6.30;99.90
29241;DHT22;16268;49.880;8.648;2023-01-31T23:34:32;6.30;99.90
29241;DHT22;16268;49.880;8.648;2023-01-31T23:36:58;6.30;99.90
29241;DHT22;16268;49.880;8.648;2023-01-31T23:39:23;6.30;99.90
29241;DHT22;16268;49.880;8.648;2023-01-31T23:41:49;6.30;99.90
29241;DHT22;16268;49.880;8.648;2023-01-31T23:44:14;6.20;99.90
29241;DHT22;16268;49.880;8.648;2023-01-31T23:46:40;6.30;99.90
29241;DHT22;16268;49.880;8.648;2023-01-31T23:49:05;6.30;99.90
29241;DHT22;16268;49.880;8.648;2023-01-31T23:51:31;6.30;99.90
29241;DHT22;16268;49.880;8.648;2023-01-31T23:53:58;6.30;99.90
29241;DHT22;16268;49.880;8.648;2023-01-31T23:56:23;6.30;99.90
29241;DHT22;16268;49.880;8.648;2023-01-31T23:58:51;6.30;99.90
